sensor_id;sensor_type;location;lat;lon;timestamp;pressure;altitude;pressure_sealevel;temperature;humidity
53546;BME280;39432;51.902;10.844;2023-05-29T00:00:59;99982.69;;;12.95;100.00
53546;BME280;39432;51.902;10.844;2023-05-29T00:03:29;99970.97;;;12.67;100.00
53546;BME280;39432;51.902;10.844;2023-05-29T00:06:02;99967.44;;;12.39;100.00
53546;BME280;39432;51.902;10.844;2023-05-29T00:08:32;99977.53;;;12.66;100.00
53546;BME280;39432;51.902;10.844;2023-05-29T00:11:02;99972.06;;;13.03;100.00
53546;BME280;39432;51.902;10.844;2023-05-29T00:13:35;99967.53;;;12.87;100.00
53546;BME280;39432;51.902;10.844;2023-05-29T00:16:06;99963.22;;;12.00;100.00
53546;BME280;39432;51.902;10.844;2023-05-29T00:18:36;99972.66;;;12.73;100.00
53546;BME280;39432;51.902;10.844;2023-05-29T00:21:12;99979.50;;;13.08;100.00
53546;BME280;39432;51.902;10.844;2023-05-29T00:23:42;99984.78;;;12.77;100.00
53546;BME280;39432;51.902;10.844;2023-05-29T00:26:12;99987.88;;;12.91;100.00
53546;BME280;39432;51.902;10.844;2023-05-29T00:28:52;99985.13;;;13.28;100.00
53546;BME280;39432;51.902;10.844;2023-05-29T00:31:22;99986.69;;;12.45;100.00
53546;BME280;39432;51.902;10.844;2023-05-29T00:33:52;99982.94;;;12.56;100.00
53546;BME280;39432;51.902;10.844;2023-05-29T00:36:21;99986.47;;;12.83;100.00
53546;BME280;39432;51.902;10.844;2023-05-29T00:38:52;99988.28;;;13.47;100.00
53546;BME280;39432;51.902;10.844;2023-05-29T00:41:22;99993.25;;;13.13;100.00
53546;BME280;39432;51.902;10.844;2023-05-29T00:43:54;99989.72;;;13.65;100.00
53546;BME280;39432;51.902;10.844;2023-05-29T00:46:24;99981.59;;;14.01;100.00
53546;BME280;39432;51.902;10.844;2023-05-29T00:48:54;99986.97;;;13.60;100.00
53546;BME280;39432;51.902;10.844;2023-05-29T00:51:25;99986.38;;;13.10;100.00
53546;BME280;39432;51.902;10.844;2023-05-29T00:53:57;99986.44;;;13.73;100.00
53546;BME280;39432;51.902;10.844;2023-05-29T00:56:28;99986.00;;;14.12;100.00
53546;BME280;39432;51.902;10.844;2023-05-29T00:59:00;99980.75;;;13.95;100.00
53546;BME280;39432;51.902;10.844;2023-05-29T01:01:30;99994.94;;;13.61;100.00
53546;BME280;39432;51.902;10.844;2023-05-29T01:04:05;99997.84;;;13.39;100.00
53546;BME280;39432;51.902;10.844;2023-05-29T01:06:35;100000.44;;;11.52;100.00
53546;BME280;39432;51.902;10.844;2023-05-29T01:09:06;100004.81;;;11.75;100.00
53546;BME280;39432;51.902;10.844;2023-05-29T01:11:42;100008.47;;;12.88;100.00
53546;BME280;39432;51.902;10.844;2023-05-29T01:14:22;100010.50;;;13.45;100.00
53546;BME280;39432;51.902;10.844;2023-05-29T01:17:00;100004.94;;;12.93;100.00
53546;BME280;39432;51.902;10.844;2023-05-29T01:19:46;100005.50;;;13.32;100.00
53546;BME280;39432;51.902;10.844;2023-05-29T01:22:29;100012.56;;;13.65;100.00
53546;BME280;39432;51.902;10.844;2023-05-29T01:25:11;100022.41;;;13.14;100.00
53546;BME280;39432;51.902;10.844;2023-05-29T01:27:44;100027.72;;;13.68;100.00
53546;BME280;39432;51.902;10.844;2023-05-29T01:30:15;100022.88;;;13.95;100.00
53546;BME280;39432;51.902;10.844;2023-05-29T01:32:46;100027.28;;;14.02;100.00
53546;BME280;39432;51.902;10.844;2023-05-29T01:35:16;100033.56;;;13.87;100.00
53546;BME280;39432;51.902;10.844;2023-05-29T01:37:46;100026.63;;;13.74;100.00
53546;BME280;39432;51.902;10.844;2023-05-29T01:40:16;100030.34;;;12.78;100.00
53546;BME280;39432;51.902;10.844;2023-05-29T01:42:49;100038.38;;;12.26;100.00
53546;BME280;39432;51.902;10.844;2023-05-29T01:45:20;100036.97;;;12.50;100.00
53546;BME280;39432;51.902;10.844;2023-05-29T01:47:49;100044.81;;;13.01;100.00
53546;BME280;39432;51.902;10.844;2023-05-29T01:50:20;100040.09;;;13.28;100.00
53546;BME280;39432;51.902;10.844;2023-05-29T01:52:51;100046.72;;;12.68;100.00
53546;BME280;39432;51.902;10.844;2023-05-29T01:55:21;100042.75;;;12.81;100.00
53546;BME280;39432;51.902;10.844;2023-05-29T01:57:54;100049.56;;;13.10;100.00
53546;BME280;39432;51.902;10.844;2023-05-29T02:00:25;100055.13;;;12.29;100.00
53546;BME280;39432;51.902;10.844;2023-05-29T02:02:54;100055.09;;;13.15;100.00
53546;BME280;39432;51.902;10.844;2023-05-29T02:05:24;100048.72;;;12.46;100.00
53546;BME280;39432;51.902;10.844;2023-05-29T02:07:54;100055.13;;;12.83;100.00
53546;BME280;39432;51.902;10.844;2023-05-29T02:10:24;100048.16;;;13.03;100.00
53546;BME280;39432;51.902;10.844;2023-05-29T02:12:56;100050.75;;;12.87;100.00
53546;BME280;39432;51.902;10.844;2023-05-29T02:15:26;100060.66;;;11.85;100.00
53546;BME280;39432;51.902;10.844;2023-05-29T02:17:56;100049.56;;;12.78;100.00
53546;BME280;39432;51.902;10.844;2023-05-29T02:20:28;100047.50;;;12.31;100.00
53546;BME280;39432;51.902;10.844;2023-05-29T02:22:58;100053.59;;;12.38;100.00
53546;BME280;39432;51.902;10.844;2023-05-29T02:25:27;100056.84;;;11.70;100.00
53546;BME280;39432;51.902;10.844;2023-05-29T02:28:01;100063.56;;;11.79;100.00
53546;BME280;39432;51.902;10.844;2023-05-29T02:30:32;100059.38;;;12.15;100.00
53546;BME280;39432;51.902;10.844;2023-05-29T02:33:02;100062.66;;;12.39;100.00
53546;BME280;39432;51.902;10.844;2023-05-29T02:35:33;100068.88;;;12.88;100.00
53546;BME280;39432;51.902;10.844;2023-05-29T02:38:03;100063.84;;;12.75;100.00
53546;BME280;39432;51.902;10.844;2023-05-29T02:40:33;100064.16;;;12.52;100.00
53546;BME280;39432;51.902;10.844;2023-05-29T02:43:06;100062.66;;;12.66;100.00
53546;BME280;39432;51.902;10.844;2023-05-29T02:45:35;100073.56;;;12.61;100.00
53546;BME280;39432;51.902;10.844;2023-05-29T02:48:05;100068.47;;;12.70;100.00
53546;BME280;39432;51.902;10.844;2023-05-29T02:50:36;100065.28;;;12.56;100.00
53546;BME280;39432;51.902;10.844;2023-05-29T02:53:06;100062.91;;;12.37;100.00
53546;BME280;39432;51.902;10.844;2023-05-29T02:55:36;100071.84;;;12.28;100.00
53546;BME280;39432;51.902;10.844;2023-05-29T02:58:09;100069.59;;;12.47;100.00
53546;BME280;39432;51.902;10.844;2023-05-29T03:00:39;100081.00;;;12.11;100.00
53546;BME280;39432;51.902;10.844;2023-05-29T03:03:09;100089.16;;;11.12;100.00
53546;BME280;39432;51.902;10.844;2023-05-29T03:05:39;100088.75;;;11.59;100.00
53546;BME280;39432;51.902;10.844;2023-05-29T03:08:08;100096.50;;;12.01;100.00
53546;BME280;39432;51.902;10.844;2023-05-29T03:10:42;100096.81;;;12.04;100.00
53546;BME280;39432;51.902;10.844;2023-05-29T03:13:16;100096.06;;;11.70;100.00
53546;BME280;39432;51.902;10.844;2023-05-29T03:15:55;100099.03;;;11.85;100.00
53546;BME280;39432;51.902;10.844;2023-05-29T03:18:25;100100.91;;;12.02;100.00
53546;BME280;39432;51.902;10.844;2023-05-29T03:20:55;100108.56;;;12.22;100.00
53546;BME280;39432;51.902;10.844;2023-05-29T03:23:25;100099.69;;;12.36;100.00
53546;BME280;39432;51.902;10.844;2023-05-29T03:25:55;100099.94;;;12.62;100.00
53546;BME280;39432;51.902;10.844;2023-05-29T03:28:28;100102.19;;;11.77;100.00
53546;BME280;39432;51.902;10.844;2023-05-29T03:31:01;100098.94;;;12.46;100.00
53546;BME280;39432;51.902;10.844;2023-05-29T03:33:31;100090.41;;;12.97;100.00
53546;BME280;39432;51.902;10.844;2023-05-29T03:36:12;100084.63;;;12.17;100.00
53546;BME280;39432;51.902;10.844;2023-05-29T03:38:44;100089.84;;;11.97;100.00
53546;BME280;39432;51.902;10.844;2023-05-29T03:41:13;100087.31;;;11.90;100.00
53546;BME280;39432;51.902;10.844;2023-05-29T03:43:46;100083.31;;;12.47;100.00
53546;BME280;39432;51.902;10.844;2023-05-29T03:46:18;100089.38;;;12.49;100.00
53546;BME280;39432;51.902;10.844;2023-05-29T03:48:48;100086.72;;;12.86;100.00
53546;BME280;39432;51.902;10.844;2023-05-29T03:51:18;100088.22;;;13.78;100.00
53546;BME280;39432;51.902;10.844;2023-05-29T03:53:49;100087.31;;;12.12;100.00
53546;BME280;39432;51.902;10.844;2023-05-29T03:56:19;100086.63;;;12.49;100.00
53546;BME280;39432;51.902;10.844;2023-05-29T03:58:52;100091.69;;;12.89;100.00
53546;BME280;39432;51.902;10.844;2023-05-29T04:01:22;100086.63;;;13.82;100.00
53546;BME280;39432;51.902;10.844;2023-05-29T04:03:53;100093.91;;;13.61;100.00
53546;BME280;39432;51.902;10.844;2023-05-29T04:06:23;100080.75;;;14.26;100.00
53546;BME280;39432;51.902;10.844;2023-05-29T04:08:53;100088.38;;;14.09;100.00
53546;BME280;39432;51.902;10.844;2023-05-29T04:11:23;100081.47;;;15.20;100.00
53546;BME280;39432;51.902;10.844;2023-05-29T04:13:56;100097.22;;;14.16;100.00
53546;BME280;39432;51.902;10.844;2023-05-29T04:16:26;100105.16;;;13.55;100.00
53546;BME280;39432;51.902;10.844;2023-05-29T04:18:56;100111.78;;;13.59;100.00
53546;BME280;39432;51.902;10.844;2023-05-29T04:21:29;100111.72;;;13.49;100.00
53546;BME280;39432;51.902;10.844;2023-05-29T04:24:00;100111.88;;;14.32;100.00
53546;BME280;39432;51.902;10.844;2023-05-29T04:26:29;100098.53;;;15.58;100.00
53546;BME280;39432;51.902;10.844;2023-05-29T04:29:02;100103.66;;;16.10;100.00
53546;BME280;39432;51.902;10.844;2023-05-29T04:31:32;100107.63;;;16.48;99.20
53546;BME280;39432;51.902;10.844;2023-05-29T04:34:03;100108.81;;;16.32;95.32
53546;BME280;39432;51.902;10.844;2023-05-29T04:36:34;100107.94;;;16.37;93.86
53546;BME280;39432;51.902;10.844;2023-05-29T04:39:11;100111.97;;;16.59;95.51
53546;BME280;39432;51.902;10.844;2023-05-29T04:41:41;100116.03;;;17.17;93.00
53546;BME280;39432;51.902;10.844;2023-05-29T04:44:18;100109.84;;;17.30;86.62
53546;BME280;39432;51.902;10.844;2023-05-29T04:46:50;100115.72;;;17.52;84.81
53546;BME280;39432;51.902;10.844;2023-05-29T04:49:21;100112.91;;;16.89;86.28
53546;BME280;39432;51.902;10.844;2023-05-29T04:51:50;100117.22;;;17.05;83.91
53546;BME280;39432;51.902;10.844;2023-05-29T04:54:23;100123.00;;;18.01;82.13
53546;BME280;39432;51.902;10.844;2023-05-29T04:56:54;100124.41;;;17.75;80.52
53546;BME280;39432;51.902;10.844;2023-05-29T04:59:31;100123.81;;;17.78;81.32
53546;BME280;39432;51.902;10.844;2023-05-29T05:02:02;100127.84;;;17.56;82.67
53546;BME280;39432;51.902;10.844;2023-05-29T05:04:33;100123.81;;;17.78;82.67
53546;BME280;39432;51.902;10.844;2023-05-29T05:07:04;100125.38;;;17.55;85.76
53546;BME280;39432;51.902;10.844;2023-05-29T05:09:35;100130.06;;;18.12;81.35
53546;BME280;39432;51.902;10.844;2023-05-29T05:12:06;100128.91;;;18.19;82.61
53546;BME280;39432;51.902;10.844;2023-05-29T05:14:39;100124.44;;;18.84;76.47
53546;BME280;39432;51.902;10.844;2023-05-29T05:17:09;100125.09;;;18.33;76.94
53546;BME280;39432;51.902;10.844;2023-05-29T05:19:40;100133.22;;;18.49;80.83
53546;BME280;39432;51.902;10.844;2023-05-29T05:22:10;100135.66;;;18.07;79.96
53546;BME280;39432;51.902;10.844;2023-05-29T05:24:40;100143.56;;;18.86;79.65
53546;BME280;39432;51.902;10.844;2023-05-29T05:27:10;100144.44;;;19.00;75.92
53546;BME280;39432;51.902;10.844;2023-05-29T05:29:42;100140.84;;;18.57;82.76
53546;BME280;39432;51.902;10.844;2023-05-29T05:32:12;100137.69;;;19.06;79.86
53546;BME280;39432;51.902;10.844;2023-05-29T05:34:42;100135.78;;;18.64;78.65
53546;BME280;39432;51.902;10.844;2023-05-29T05:37:12;100135.50;;;18.65;79.51
53546;BME280;39432;51.902;10.844;2023-05-29T05:39:42;100131.47;;;19.14;78.52
53546;BME280;39432;51.902;10.844;2023-05-29T05:42:11;100132.91;;;19.63;76.62
53546;BME280;39432;51.902;10.844;2023-05-29T05:44:52;100128.94;;;19.51;73.73
53546;BME280;39432;51.902;10.844;2023-05-29T05:47:22;100132.03;;;19.95;73.40
53546;BME280;39432;51.902;10.844;2023-05-29T05:49:54;100141.22;;;18.93;74.72
53546;BME280;39432;51.902;10.844;2023-05-29T05:52:24;100136.81;;;18.92;79.65
53546;BME280;39432;51.902;10.844;2023-05-29T05:54:57;100140.47;;;18.68;76.40
53546;BME280;39432;51.902;10.844;2023-05-29T05:57:27;100133.09;;;18.35;76.84
53546;BME280;39432;51.902;10.844;2023-05-29T06:00:02;100131.59;;;19.88;73.31
53546;BME280;39432;51.902;10.844;2023-05-29T06:02:42;100125.31;;;19.83;72.74
53546;BME280;39432;51.902;10.844;2023-05-29T06:05:22;100128.97;;;19.32;73.03
53546;BME280;39432;51.902;10.844;2023-05-29T06:07:51;100129.66;;;19.05;75.89
53546;BME280;39432;51.902;10.844;2023-05-29T06:10:22;100127.97;;;19.09;75.06
53546;BME280;39432;51.902;10.844;2023-05-29T06:32:16;100133.56;;;19.04;77.40
53546;BME280;39432;51.902;10.844;2023-05-29T06:34:46;100139.50;;;17.87;85.87
53546;BME280;39432;51.902;10.844;2023-05-29T06:37:16;100141.69;;;19.84;76.83
53546;BME280;39432;51.902;10.844;2023-05-29T06:39:45;100140.06;;;20.24;72.53
53546;BME280;39432;51.902;10.844;2023-05-29T06:53:10;100143.84;;;19.73;77.75
53546;BME280;39432;51.902;10.844;2023-05-29T06:55:50;100136.31;;;19.22;77.81
53546;BME280;39432;51.902;10.844;2023-05-29T06:58:20;100141.44;;;19.34;75.55
53546;BME280;39432;51.902;10.844;2023-05-29T07:00:50;100143.94;;;19.82;77.69
53546;BME280;39432;51.902;10.844;2023-05-29T07:03:40;100150.53;;;17.58;81.35
53546;BME280;39432;51.902;10.844;2023-05-29T07:06:10;100151.28;;;18.46;83.76
53546;BME280;39432;51.902;10.844;2023-05-29T07:08:42;100152.81;;;18.33;87.03
53546;BME280;39432;51.902;10.844;2023-05-29T07:11:12;100151.94;;;18.14;85.37
53546;BME280;39432;51.902;10.844;2023-05-29T07:13:42;100158.75;;;18.69;87.52
53546;BME280;39432;51.902;10.844;2023-05-29T07:16:13;100154.44;;;19.34;81.94
53546;BME280;39432;51.902;10.844;2023-05-29T07:18:55;100163.78;;;18.20;82.75
53546;BME280;39432;51.902;10.844;2023-05-29T07:21:28;100161.88;;;19.90;81.97
53546;BME280;39432;51.902;10.844;2023-05-29T07:24:02;100159.78;;;19.82;77.75
53546;BME280;39432;51.902;10.844;2023-05-29T07:26:32;100164.03;;;19.60;77.82
53546;BME280;39432;51.902;10.844;2023-05-29T07:29:02;100170.38;;;19.93;75.83
53546;BME280;39432;51.902;10.844;2023-05-29T07:31:32;100165.09;;;20.52;71.04
53546;BME280;39432;51.902;10.844;2023-05-29T07:34:02;100168.81;;;20.61;70.52
53546;BME280;39432;51.902;10.844;2023-05-29T07:36:32;100175.47;;;20.60;70.44
53546;BME280;39432;51.902;10.844;2023-05-29T07:39:09;100173.91;;;20.26;74.67
53546;BME280;39432;51.902;10.844;2023-05-29T07:41:39;100173.81;;;20.18;75.26
53546;BME280;39432;51.902;10.844;2023-05-29T07:44:09;100177.53;;;19.48;76.06
53546;BME280;39432;51.902;10.844;2023-05-29T07:46:39;100179.53;;;19.94;78.02
53546;BME280;39432;51.902;10.844;2023-05-29T07:49:27;100181.03;;;20.88;71.19
53546;BME280;39432;51.902;10.844;2023-05-29T07:51:57;100179.19;;;20.42;74.32
53546;BME280;39432;51.902;10.844;2023-05-29T07:54:30;100175.06;;;20.81;73.01
53546;BME280;39432;51.902;10.844;2023-05-29T07:57:01;100174.59;;;21.01;72.57
53546;BME280;39432;51.902;10.844;2023-05-29T07:59:40;100174.44;;;20.42;74.83
53546;BME280;39432;51.902;10.844;2023-05-29T08:02:11;100177.97;;;19.55;80.16
53546;BME280;39432;51.902;10.844;2023-05-29T08:04:50;100183.09;;;19.48;82.91
53546;BME280;39432;51.902;10.844;2023-05-29T08:07:22;100175.97;;;19.61;82.40
53546;BME280;39432;51.902;10.844;2023-05-29T08:09:56;100184.63;;;19.21;83.45
53546;BME280;39432;51.902;10.844;2023-05-29T08:12:26;100181.22;;;19.43;85.28
53546;BME280;39432;51.902;10.844;2023-05-29T08:14:57;100186.81;;;20.22;80.19
53546;BME280;39432;51.902;10.844;2023-05-29T08:17:27;100190.72;;;20.76;75.96
53546;BME280;39432;51.902;10.844;2023-05-29T08:19:57;100185.75;;;20.18;76.30
53546;BME280;39432;51.902;10.844;2023-05-29T08:22:28;100191.13;;;20.29;74.78
53546;BME280;39432;51.902;10.844;2023-05-29T08:25:04;100183.44;;;20.53;74.50
53546;BME280;39432;51.902;10.844;2023-05-29T08:27:35;100184.22;;;22.07;70.47
53546;BME280;39432;51.902;10.844;2023-05-29T08:30:06;100190.94;;;20.52;74.16
53546;BME280;39432;51.902;10.844;2023-05-29T08:32:35;100191.63;;;20.86;74.83
53546;BME280;39432;51.902;10.844;2023-05-29T08:35:06;100182.56;;;22.28;69.42
53546;BME280;39432;51.902;10.844;2023-05-29T08:37:35;100175.31;;;22.84;63.97
53546;BME280;39432;51.902;10.844;2023-05-29T08:40:09;100178.13;;;21.74;61.03
53546;BME280;39432;51.902;10.844;2023-05-29T08:42:45;100169.94;;;21.46;67.48
53546;BME280;39432;51.902;10.844;2023-05-29T08:45:18;100178.44;;;21.27;68.77
53546;BME280;39432;51.902;10.844;2023-05-29T08:47:50;100180.34;;;20.68;67.08
53546;BME280;39432;51.902;10.844;2023-05-29T08:50:21;100176.00;;;21.12;70.62
53546;BME280;39432;51.902;10.844;2023-05-29T08:52:52;100173.91;;;21.31;68.24
53546;BME280;39432;51.902;10.844;2023-05-29T08:55:24;100178.78;;;21.12;69.48
53546;BME280;39432;51.902;10.844;2023-05-29T08:57:55;100174.22;;;20.94;70.83
53546;BME280;39432;51.902;10.844;2023-05-29T09:00:25;100186.84;;;20.50;72.43
53546;BME280;39432;51.902;10.844;2023-05-29T09:02:56;100178.66;;;20.26;72.27
53546;BME280;39432;51.902;10.844;2023-05-29T09:05:26;100178.25;;;20.60;72.42
53546;BME280;39432;51.902;10.844;2023-05-29T09:07:56;100181.88;;;20.47;75.53
53546;BME280;39432;51.902;10.844;2023-05-29T09:10:29;100183.72;;;20.24;72.49
53546;BME280;39432;51.902;10.844;2023-05-29T09:12:59;100195.25;;;19.52;74.74
53546;BME280;39432;51.902;10.844;2023-05-29T09:15:29;100186.41;;;19.83;76.78
53546;BME280;39432;51.902;10.844;2023-05-29T09:18:00;100175.47;;;20.60;72.29
53546;BME280;39432;51.902;10.844;2023-05-29T09:20:31;100178.38;;;20.27;73.36
53546;BME280;39432;51.902;10.844;2023-05-29T09:23:02;100178.97;;;20.24;73.34
53546;BME280;39432;51.902;10.844;2023-05-29T09:25:36;100180.41;;;20.08;72.60
53546;BME280;39432;51.902;10.844;2023-05-29T09:28:10;100189.47;;;18.49;75.65
53546;BME280;39432;51.902;10.844;2023-05-29T09:30:42;100185.09;;;19.29;79.88
53546;BME280;39432;51.902;10.844;2023-05-29T09:33:13;100168.16;;;20.09;77.45
53546;BME280;39432;51.902;10.844;2023-05-29T09:35:45;100177.25;;;19.68;80.25
53546;BME280;39432;51.902;10.844;2023-05-29T09:38:17;100181.25;;;20.77;76.06
53546;BME280;39432;51.902;10.844;2023-05-29T09:40:52;100171.66;;;20.84;69.49
53546;BME280;39432;51.902;10.844;2023-05-29T09:43:30;100196.63;;;19.17;74.70
53546;BME280;39432;51.902;10.844;2023-05-29T09:46:01;100194.13;;;18.78;78.27
53546;BME280;39432;51.902;10.844;2023-05-29T09:48:31;100188.78;;;19.76;77.09
53546;BME280;39432;51.902;10.844;2023-05-29T09:51:02;100190.03;;;21.07;72.38
53546;BME280;39432;51.902;10.844;2023-05-29T09:53:32;100192.31;;;19.95;72.32
53546;BME280;39432;51.902;10.844;2023-05-29T09:56:04;100185.91;;;20.68;73.74
53546;BME280;39432;51.902;10.844;2023-05-29T09:58:35;100185.72;;;21.01;70.47
53546;BME280;39432;51.902;10.844;2023-05-29T10:01:13;100185.34;;;20.94;69.31
53546;BME280;39432;51.902;10.844;2023-05-29T10:03:43;100192.34;;;19.62;70.34
53546;BME280;39432;51.902;10.844;2023-05-29T10:06:16;100188.81;;;19.38;72.47
53546;BME280;39432;51.902;10.844;2023-05-29T10:08:49;100182.75;;;20.15;72.97
53546;BME280;39432;51.902;10.844;2023-05-29T10:11:23;100180.31;;;21.32;68.36
53546;BME280;39432;51.902;10.844;2023-05-29T10:13:57;100175.81;;;22.29;63.50
53546;BME280;39432;51.902;10.844;2023-05-29T10:16:27;100179.09;;;21.69;61.95
53546;BME280;39432;51.902;10.844;2023-05-29T10:19:00;100175.66;;;21.95;62.24
53546;BME280;39432;51.902;10.844;2023-05-29T10:21:36;100175.97;;;22.24;61.01
53546;BME280;39432;51.902;10.844;2023-05-29T10:24:07;100171.72;;;22.27;59.71
53546;BME280;39432;51.902;10.844;2023-05-29T10:26:43;100179.66;;;22.42;58.65
53546;BME280;39432;51.902;10.844;2023-05-29T10:29:21;100177.03;;;22.46;58.39
53546;BME280;39432;51.902;10.844;2023-05-29T10:32:01;100174.22;;;22.06;59.93
53546;BME280;39432;51.902;10.844;2023-05-29T10:34:40;100174.63;;;19.91;70.48
53546;BME280;39432;51.902;10.844;2023-05-29T10:37:23;100164.78;;;20.53;73.33
53546;BME280;39432;51.902;10.844;2023-05-29T10:40:03;100173.34;;;21.07;68.12
53546;BME280;39432;51.902;10.844;2023-05-29T10:42:45;100171.78;;;20.23;72.27
53546;BME280;39432;51.902;10.844;2023-05-29T10:45:50;100159.66;;;20.47;70.81
53546;BME280;39432;51.902;10.844;2023-05-29T10:48:40;100157.16;;;21.09;71.62
53546;BME280;39432;51.902;10.844;2023-05-29T10:51:27;100150.75;;;21.45;65.40
53546;BME280;39432;51.902;10.844;2023-05-29T10:53:58;100152.00;;;20.39;70.52
53546;BME280;39432;51.902;10.844;2023-05-29T10:56:29;100147.66;;;21.46;69.65
53546;BME280;39432;51.902;10.844;2023-05-29T10:59:02;100156.63;;;20.30;67.44
53546;BME280;39432;51.902;10.844;2023-05-29T11:01:32;100151.41;;;20.56;68.52
53546;BME280;39432;51.902;10.844;2023-05-29T11:04:26;100139.63;;;22.07;64.95
53546;BME280;39432;51.902;10.844;2023-05-29T11:06:59;100142.06;;;22.40;61.43
53546;BME280;39432;51.902;10.844;2023-05-29T11:09:34;100148.06;;;20.81;61.80
53546;BME280;39432;51.902;10.844;2023-05-29T11:12:14;100155.44;;;20.49;65.85
53546;BME280;39432;51.902;10.844;2023-05-29T11:14:59;100153.84;;;20.43;66.47
53546;BME280;39432;51.902;10.844;2023-05-29T11:17:43;100152.53;;;20.13;66.99
53546;BME280;39432;51.902;10.844;2023-05-29T11:20:27;100147.78;;;21.95;64.84
53546;BME280;39432;51.902;10.844;2023-05-29T11:23:02;100150.59;;;22.34;64.52
53546;BME280;39432;51.902;10.844;2023-05-29T11:25:36;100150.22;;;21.96;66.01
53546;BME280;39432;51.902;10.844;2023-05-29T11:28:08;100160.22;;;21.89;68.65
53546;BME280;39432;51.902;10.844;2023-05-29T11:30:47;100153.91;;;22.45;67.86
53546;BME280;39432;51.902;10.844;2023-05-29T11:33:24;100153.69;;;22.02;67.50
53546;BME280;39432;51.902;10.844;2023-05-29T11:35:57;100156.56;;;22.50;63.34
53546;BME280;39432;51.902;10.844;2023-05-29T11:38:28;100156.44;;;22.64;62.54
53546;BME280;39432;51.902;10.844;2023-05-29T11:41:01;100160.06;;;22.25;67.07
53546;BME280;39432;51.902;10.844;2023-05-29T11:43:31;100154.09;;;22.09;66.47
53546;BME280;39432;51.902;10.844;2023-05-29T11:46:15;100159.38;;;22.59;65.09
53546;BME280;39432;51.902;10.844;2023-05-29T11:48:45;100161.53;;;22.71;63.36
53546;BME280;39432;51.902;10.844;2023-05-29T11:51:15;100153.97;;;22.71;60.42
53546;BME280;39432;51.902;10.844;2023-05-29T12:20:29;100133.50;;;21.96;68.39
53546;BME280;39432;51.902;10.844;2023-05-29T12:23:02;100133.13;;;21.58;64.52
53546;BME280;39432;51.902;10.844;2023-05-29T12:25:34;100133.28;;;21.30;65.07
53546;BME280;39432;51.902;10.844;2023-05-29T12:28:05;100128.91;;;22.23;62.67
53546;BME280;39432;51.902;10.844;2023-05-29T12:30:37;100133.44;;;22.58;60.53
53546;BME280;39432;51.902;10.844;2023-05-29T12:33:09;100137.03;;;22.42;60.57
53546;BME280;39432;51.902;10.844;2023-05-29T12:35:46;100130.03;;;22.70;59.54
53546;BME280;39432;51.902;10.844;2023-05-29T12:38:18;100131.38;;;23.16;58.51
53546;BME280;39432;51.902;10.844;2023-05-29T12:40:48;100135.75;;;22.65;58.02
53546;BME280;39432;51.902;10.844;2023-05-29T12:43:19;100135.81;;;22.25;57.48
53546;BME280;39432;51.902;10.844;2023-05-29T12:45:54;100136.44;;;21.15;62.77
53546;BME280;39432;51.902;10.844;2023-05-29T12:48:28;100129.91;;;22.35;59.64
53546;BME280;39432;51.902;10.844;2023-05-29T12:51:04;100125.38;;;22.57;59.03
53546;BME280;39432;51.902;10.844;2023-05-29T12:53:34;100127.75;;;23.42;57.60
53546;BME280;39432;51.902;10.844;2023-05-29T12:56:04;100121.22;;;23.03;56.00
53546;BME280;39432;51.902;10.844;2023-05-29T12:58:35;100122.94;;;23.59;56.84
53546;BME280;39432;51.902;10.844;2023-05-29T13:01:04;100122.69;;;22.34;56.18
53546;BME280;39432;51.902;10.844;2023-05-29T13:03:34;100128.91;;;20.79;62.19
53546;BME280;39432;51.902;10.844;2023-05-29T13:06:07;100126.06;;;21.29;63.74
53546;BME280;39432;51.902;10.844;2023-05-29T13:08:37;100123.38;;;21.24;64.95
53546;BME280;39432;51.902;10.844;2023-05-29T13:11:07;100123.56;;;20.69;64.65
53546;BME280;39432;51.902;10.844;2023-05-29T13:13:37;100131.88;;;22.26;60.81
53546;BME280;39432;51.902;10.844;2023-05-29T13:16:07;100126.72;;;22.85;58.88
53546;BME280;39432;51.902;10.844;2023-05-29T13:18:37;100135.56;;;22.53;57.02
53546;BME280;39432;51.902;10.844;2023-05-29T13:21:09;100132.44;;;22.63;58.47
53546;BME280;39432;51.902;10.844;2023-05-29T13:23:39;100127.53;;;22.69;56.87
53546;BME280;39432;51.902;10.844;2023-05-29T13:26:09;100123.72;;;22.39;56.96
53546;BME280;39432;51.902;10.844;2023-05-29T13:28:39;100125.94;;;22.19;56.34
53546;BME280;39432;51.902;10.844;2023-05-29T13:31:09;100126.72;;;22.68;55.71
53546;BME280;39432;51.902;10.844;2023-05-29T13:33:38;100121.16;;;22.85;54.12
53546;BME280;39432;51.902;10.844;2023-05-29T13:36:11;100121.09;;;21.71;55.30
53546;BME280;39432;51.902;10.844;2023-05-29T13:38:41;100117.75;;;22.14;56.82
53546;BME280;39432;51.902;10.844;2023-05-29T13:41:11;100118.81;;;22.04;57.60
53546;BME280;39432;51.902;10.844;2023-05-29T13:43:41;100119.19;;;22.12;57.28
53546;BME280;39432;51.902;10.844;2023-05-29T13:46:12;100119.59;;;21.65;59.43
53546;BME280;39432;51.902;10.844;2023-05-29T13:48:42;100116.25;;;22.17;56.90
53546;BME280;39432;51.902;10.844;2023-05-29T13:51:15;100112.47;;;22.13;60.31
53546;BME280;39432;51.902;10.844;2023-05-29T13:53:45;100119.56;;;21.96;56.50
53546;BME280;39432;51.902;10.844;2023-05-29T13:56:15;100116.38;;;22.60;55.40
53546;BME280;39432;51.902;10.844;2023-05-29T13:58:45;100116.28;;;22.91;54.21
53546;BME280;39432;51.902;10.844;2023-05-29T14:01:15;100103.09;;;23.35;53.13